Irtyshsk, Kazakhstan
Current Conditions -  °F | °C
As of 11:00 PM on Friday 19 Dec 2014 (Local Time) from UASP Reporting Station
Clear Clear  
Wind Chill: -29°   Ceiling: Unl
Heat Index: -20°   Visibility: 6mi
Dew Point: -24°   Wind: 9mph
Humidity: 71%   Direction: 120°ESE
Pressure: 30.5"   Gusts: NA
Location:  53.33°N, 75.46°E
Report Text: UASP 191700Z 12004MPS CAVOK M20/M24 Q1033 R21/410160 NOSIG RMKQFE763/1018
Loading
Personal Weather Stations






























Interactive Weather Map New forecast layout! Learn more

10-Day Weather Forecast

Advertisements
Track Severe Weather on mobile